sensor_id;sensor_type;location;lat;lon;timestamp;pressure;altitude;pressure_sealevel;temperature;humidity
4085;BME280;2057;50.858;6.572;2023-04-30T00:01:56;100955.78;;;9.21;100.00
4085;BME280;2057;50.858;6.572;2023-04-30T00:04:21;100963.28;;;9.06;100.00
4085;BME280;2057;50.858;6.572;2023-04-30T00:06:47;100953.84;;;9.04;100.00
4085;BME280;2057;50.858;6.572;2023-04-30T00:09:12;100960.16;;;9.24;100.00
4085;BME280;2057;50.858;6.572;2023-04-30T00:11:37;100965.06;;;9.21;100.00
4085;BME280;2057;50.858;6.572;2023-04-30T00:14:03;100958.22;;;9.06;100.00
4085;BME280;2057;50.858;6.572;2023-04-30T00:16:28;100964.28;;;9.08;100.00
4085;BME280;2057;50.858;6.572;2023-04-30T00:18:53;100967.69;;;9.09;100.00
4085;BME280;2057;50.858;6.572;2023-04-30T00:21:19;100971.00;;;9.08;100.00
4085;BME280;2057;50.858;6.572;2023-04-30T00:23:44;100971.56;;;9.04;100.00
4085;BME280;2057;50.858;6.572;2023-04-30T00:26:09;100964.97;;;8.92;100.00
4085;BME280;2057;50.858;6.572;2023-04-30T00:28:35;100969.53;;;8.98;100.00
4085;BME280;2057;50.858;6.572;2023-04-30T00:31:00;100968.47;;;8.94;100.00
4085;BME280;2057;50.858;6.572;2023-04-30T00:33:25;100967.19;;;9.01;100.00
4085;BME280;2057;50.858;6.572;2023-04-30T00:35:51;100967.81;;;8.97;100.00
4085;BME280;2057;50.858;6.572;2023-04-30T00:38:16;100963.00;;;9.02;100.00
4085;BME280;2057;50.858;6.572;2023-04-30T00:40:42;100972.56;;;9.06;100.00
4085;BME280;2057;50.858;6.572;2023-04-30T00:43:07;100968.94;;;9.16;100.00
4085;BME280;2057;50.858;6.572;2023-04-30T00:45:33;100968.34;;;9.06;100.00
4085;BME280;2057;50.858;6.572;2023-04-30T00:47:58;100974.03;;;9.02;100.00
4085;BME280;2057;50.858;6.572;2023-04-30T00:50:27;100961.38;;;9.02;100.00
4085;BME280;2057;50.858;6.572;2023-04-30T00:52:53;100966.63;;;8.92;100.00
4085;BME280;2057;50.858;6.572;2023-04-30T00:55:19;100966.53;;;8.90;100.00
4085;BME280;2057;50.858;6.572;2023-04-30T00:57:45;100975.19;;;8.94;100.00
4085;BME280;2057;50.858;6.572;2023-04-30T01:00:11;100975.66;;;9.02;100.00
4085;BME280;2057;50.858;6.572;2023-04-30T01:02:37;100968.38;;;8.93;100.00
4085;BME280;2057;50.858;6.572;2023-04-30T01:05:03;100975.00;;;8.91;100.00
4085;BME280;2057;50.858;6.572;2023-04-30T01:07:30;100975.41;;;8.97;100.00
4085;BME280;2057;50.858;6.572;2023-04-30T01:09:55;100978.09;;;9.00;100.00
4085;BME280;2057;50.858;6.572;2023-04-30T01:15:22;100978.88;;;8.99;100.00
4085;BME280;2057;50.858;6.572;2023-04-30T01:20:22;100972.06;;;8.85;100.00
4085;BME280;2057;50.858;6.572;2023-04-30T01:23:13;100968.78;;;8.86;100.00
4085;BME280;2057;50.858;6.572;2023-04-30T01:28:27;100969.94;;;8.77;100.00
4085;BME280;2057;50.858;6.572;2023-04-30T01:30:52;100969.03;;;8.77;100.00
4085;BME280;2057;50.858;6.572;2023-04-30T01:33:18;100966.22;;;8.72;100.00
4085;BME280;2057;50.858;6.572;2023-04-30T01:44:28;100964.53;;;8.59;100.00
4085;BME280;2057;50.858;6.572;2023-04-30T01:47:04;100974.78;;;8.61;100.00
4085;BME280;2057;50.858;6.572;2023-04-30T01:52:58;100970.03;;;8.66;100.00
4085;BME280;2057;50.858;6.572;2023-04-30T01:55:29;100965.91;;;8.54;100.00
4085;BME280;2057;50.858;6.572;2023-04-30T01:58:00;100966.00;;;8.56;100.00
4085;BME280;2057;50.858;6.572;2023-04-30T02:00:28;100972.75;;;8.55;100.00
4085;BME280;2057;50.858;6.572;2023-04-30T02:02:55;100980.63;;;8.60;100.00
4085;BME280;2057;50.858;6.572;2023-04-30T02:05:20;100973.41;;;8.53;100.00
4085;BME280;2057;50.858;6.572;2023-04-30T02:07:47;100970.59;;;8.48;100.00
4085;BME280;2057;50.858;6.572;2023-04-30T02:10:15;100977.16;;;8.46;100.00
4085;BME280;2057;50.858;6.572;2023-04-30T02:12:40;100978.19;;;8.48;100.00
4085;BME280;2057;50.858;6.572;2023-04-30T02:15:06;100973.88;;;8.47;100.00
4085;BME280;2057;50.858;6.572;2023-04-30T02:17:32;100968.91;;;8.48;100.00
4085;BME280;2057;50.858;6.572;2023-04-30T02:19:58;100970.44;;;8.46;100.00
4085;BME280;2057;50.858;6.572;2023-04-30T02:22:24;100967.16;;;8.47;100.00
4085;BME280;2057;50.858;6.572;2023-04-30T02:24:49;100967.03;;;8.46;100.00
4085;BME280;2057;50.858;6.572;2023-04-30T02:27:15;100968.41;;;8.41;100.00
4085;BME280;2057;50.858;6.572;2023-04-30T02:29:41;100974.53;;;8.44;100.00
4085;BME280;2057;50.858;6.572;2023-04-30T02:32:06;100976.94;;;8.43;100.00
4085;BME280;2057;50.858;6.572;2023-04-30T02:34:33;100976.25;;;8.32;100.00
4085;BME280;2057;50.858;6.572;2023-04-30T02:36:59;100976.47;;;8.10;100.00
4085;BME280;2057;50.858;6.572;2023-04-30T02:39:24;100990.41;;;7.91;100.00
4085;BME280;2057;50.858;6.572;2023-04-30T02:41:50;100979.44;;;7.91;100.00
4085;BME280;2057;50.858;6.572;2023-04-30T02:44:15;100975.16;;;7.52;100.00
4085;BME280;2057;50.858;6.572;2023-04-30T02:46:41;100981.13;;;7.41;100.00
4085;BME280;2057;50.858;6.572;2023-04-30T02:49:06;100980.44;;;7.44;100.00
4085;BME280;2057;50.858;6.572;2023-04-30T02:51:31;100981.72;;;7.50;100.00
4085;BME280;2057;50.858;6.572;2023-04-30T02:53:57;100978.69;;;7.43;100.00
4085;BME280;2057;50.858;6.572;2023-04-30T02:56:24;100981.91;;;7.65;100.00
4085;BME280;2057;50.858;6.572;2023-04-30T02:58:50;100983.53;;;7.77;100.00
4085;BME280;2057;50.858;6.572;2023-04-30T03:01:15;100980.66;;;7.84;100.00
4085;BME280;2057;50.858;6.572;2023-04-30T03:03:41;100984.34;;;7.64;100.00
4085;BME280;2057;50.858;6.572;2023-04-30T03:06:06;100984.59;;;7.43;100.00
4085;BME280;2057;50.858;6.572;2023-04-30T03:08:31;100986.63;;;7.35;100.00
4085;BME280;2057;50.858;6.572;2023-04-30T03:10:57;100989.13;;;7.47;100.00
4085;BME280;2057;50.858;6.572;2023-04-30T03:13:22;100982.56;;;7.26;100.00
4085;BME280;2057;50.858;6.572;2023-04-30T03:15:59;100975.97;;;7.28;100.00
4085;BME280;2057;50.858;6.572;2023-04-30T03:18:25;100985.84;;;7.25;100.00
4085;BME280;2057;50.858;6.572;2023-04-30T03:20:51;100977.81;;;7.30;100.00
4085;BME280;2057;50.858;6.572;2023-04-30T03:23:16;100974.94;;;7.37;100.00
4085;BME280;2057;50.858;6.572;2023-04-30T03:25:41;100977.94;;;7.20;100.00
4085;BME280;2057;50.858;6.572;2023-04-30T03:28:07;100976.97;;;6.94;100.00
4085;BME280;2057;50.858;6.572;2023-04-30T03:30:32;100975.69;;;6.87;100.00
4085;BME280;2057;50.858;6.572;2023-04-30T03:33:00;100976.19;;;7.07;100.00
4085;BME280;2057;50.858;6.572;2023-04-30T03:35:25;100974.13;;;7.13;100.00
4085;BME280;2057;50.858;6.572;2023-04-30T03:37:51;100981.56;;;7.12;100.00
4085;BME280;2057;50.858;6.572;2023-04-30T03:40:16;100968.00;;;6.98;100.00
4085;BME280;2057;50.858;6.572;2023-04-30T03:42:41;100979.06;;;6.88;100.00
4085;BME280;2057;50.858;6.572;2023-04-30T03:45:07;100979.28;;;6.79;100.00
4085;BME280;2057;50.858;6.572;2023-04-30T03:47:34;100973.16;;;6.87;100.00
4085;BME280;2057;50.858;6.572;2023-04-30T03:49:59;100976.09;;;6.70;100.00
4085;BME280;2057;50.858;6.572;2023-04-30T03:52:25;100973.69;;;6.71;100.00
4085;BME280;2057;50.858;6.572;2023-04-30T03:54:50;100963.25;;;6.67;100.00
4085;BME280;2057;50.858;6.572;2023-04-30T03:57:16;100971.91;;;6.47;100.00
4085;BME280;2057;50.858;6.572;2023-04-30T03:59:41;100969.91;;;6.42;100.00
4085;BME280;2057;50.858;6.572;2023-04-30T04:02:07;100974.50;;;6.36;100.00
4085;BME280;2057;50.858;6.572;2023-04-30T04:04:32;100977.03;;;6.36;100.00
4085;BME280;2057;50.858;6.572;2023-04-30T04:06:58;100979.22;;;6.32;100.00
4085;BME280;2057;50.858;6.572;2023-04-30T04:09:23;100981.56;;;6.52;100.00
4085;BME280;2057;50.858;6.572;2023-04-30T04:11:49;100985.84;;;6.53;100.00
4085;BME280;2057;50.858;6.572;2023-04-30T04:14:14;100992.09;;;6.58;100.00
4085;BME280;2057;50.858;6.572;2023-04-30T04:16:41;100988.06;;;6.61;100.00
4085;BME280;2057;50.858;6.572;2023-04-30T04:19:06;100990.59;;;6.72;100.00
4085;BME280;2057;50.858;6.572;2023-04-30T04:21:32;100988.06;;;6.72;100.00
4085;BME280;2057;50.858;6.572;2023-04-30T04:23:57;100997.59;;;6.77;100.00
4085;BME280;2057;50.858;6.572;2023-04-30T04:26:23;100988.16;;;6.74;100.00
4085;BME280;2057;50.858;6.572;2023-04-30T04:28:50;100982.78;;;6.57;100.00
4085;BME280;2057;50.858;6.572;2023-04-30T04:31:16;100984.06;;;6.40;100.00
4085;BME280;2057;50.858;6.572;2023-04-30T04:33:42;100993.97;;;6.61;100.00
4085;BME280;2057;50.858;6.572;2023-04-30T04:36:07;100998.50;;;6.77;100.00
4085;BME280;2057;50.858;6.572;2023-04-30T04:38:32;100993.66;;;6.80;100.00
4085;BME280;2057;50.858;6.572;2023-04-30T04:40:58;100988.28;;;6.87;100.00
4085;BME280;2057;50.858;6.572;2023-04-30T04:43:23;100999.16;;;6.98;100.00
4085;BME280;2057;50.858;6.572;2023-04-30T04:45:49;100999.38;;;7.01;100.00
4085;BME280;2057;50.858;6.572;2023-04-30T04:48:14;101001.34;;;7.05;100.00
4085;BME280;2057;50.858;6.572;2023-04-30T04:50:42;101005.53;;;7.05;100.00
4085;BME280;2057;50.858;6.572;2023-04-30T04:53:07;101005.31;;;7.02;100.00
4085;BME280;2057;50.858;6.572;2023-04-30T04:55:33;101003.75;;;7.16;100.00
4085;BME280;2057;50.858;6.572;2023-04-30T04:57:58;101005.63;;;7.18;100.00
4085;BME280;2057;50.858;6.572;2023-04-30T05:00:24;101010.91;;;7.21;100.00
4085;BME280;2057;50.858;6.572;2023-04-30T05:02:50;101012.00;;;7.25;100.00
4085;BME280;2057;50.858;6.572;2023-04-30T05:05:15;101014.94;;;7.31;100.00
4085;BME280;2057;50.858;6.572;2023-04-30T05:07:41;101012.41;;;7.31;100.00
4085;BME280;2057;50.858;6.572;2023-04-30T05:10:07;101017.69;;;7.34;100.00
4085;BME280;2057;50.858;6.572;2023-04-30T05:12:32;101024.16;;;7.43;100.00
4085;BME280;2057;50.858;6.572;2023-04-30T05:14:58;101025.94;;;7.44;100.00
4085;BME280;2057;50.858;6.572;2023-04-30T05:17:23;101023.59;;;7.47;100.00
4085;BME280;2057;50.858;6.572;2023-04-30T05:19:49;101020.44;;;7.49;100.00
4085;BME280;2057;50.858;6.572;2023-04-30T05:22:15;101025.91;;;7.56;100.00
4085;BME280;2057;50.858;6.572;2023-04-30T05:24:41;101020.94;;;7.57;100.00
4085;BME280;2057;50.858;6.572;2023-04-30T05:27:07;101029.09;;;7.53;100.00
4085;BME280;2057;50.858;6.572;2023-04-30T05:29:32;101028.75;;;7.60;100.00
4085;BME280;2057;50.858;6.572;2023-04-30T05:31:57;101030.69;;;7.64;100.00
4085;BME280;2057;50.858;6.572;2023-04-30T05:34:23;101032.38;;;7.64;100.00
4085;BME280;2057;50.858;6.572;2023-04-30T05:36:48;101042.13;;;7.71;100.00
4085;BME280;2057;50.858;6.572;2023-04-30T05:39:14;101037.06;;;7.71;100.00
4085;BME280;2057;50.858;6.572;2023-04-30T05:41:39;101037.06;;;7.71;100.00
4085;BME280;2057;50.858;6.572;2023-04-30T05:44:04;101030.94;;;7.67;100.00
4085;BME280;2057;50.858;6.572;2023-04-30T05:46:31;101037.53;;;7.65;100.00
4085;BME280;2057;50.858;6.572;2023-04-30T05:48:56;101033.41;;;7.79;100.00
4085;BME280;2057;50.858;6.572;2023-04-30T05:51:22;101035.50;;;7.85;100.00
4085;BME280;2057;50.858;6.572;2023-04-30T05:53:47;101036.81;;;7.92;100.00
4085;BME280;2057;50.858;6.572;2023-04-30T05:56:12;101042.09;;;7.83;100.00
4085;BME280;2057;50.858;6.572;2023-04-30T05:58:38;101039.22;;;7.90;100.00
4085;BME280;2057;50.858;6.572;2023-04-30T06:01:03;101037.00;;;7.95;100.00
4085;BME280;2057;50.858;6.572;2023-04-30T06:03:30;101035.00;;;8.03;100.00
4085;BME280;2057;50.858;6.572;2023-04-30T06:05:55;101031.03;;;8.06;100.00
4085;BME280;2057;50.858;6.572;2023-04-30T06:08:21;101028.59;;;8.08;100.00
4085;BME280;2057;50.858;6.572;2023-04-30T06:10:46;101032.22;;;8.11;100.00
4085;BME280;2057;50.858;6.572;2023-04-30T06:13:11;101028.34;;;8.16;100.00
4085;BME280;2057;50.858;6.572;2023-04-30T06:15:38;101032.06;;;8.22;100.00
4085;BME280;2057;50.858;6.572;2023-04-30T06:18:04;101030.31;;;8.21;100.00
4085;BME280;2057;50.858;6.572;2023-04-30T06:20:29;101035.03;;;8.28;100.00
4085;BME280;2057;50.858;6.572;2023-04-30T06:22:55;101025.78;;;8.28;100.00
4085;BME280;2057;50.858;6.572;2023-04-30T06:25:20;101025.31;;;8.34;100.00
4085;BME280;2057;50.858;6.572;2023-04-30T06:27:45;101029.78;;;8.38;100.00
4085;BME280;2057;50.858;6.572;2023-04-30T06:30:11;101020.72;;;8.54;100.00
4085;BME280;2057;50.858;6.572;2023-04-30T06:32:36;101024.81;;;8.65;100.00
4085;BME280;2057;50.858;6.572;2023-04-30T06:35:02;101028.13;;;8.64;100.00
4085;BME280;2057;50.858;6.572;2023-04-30T06:37:27;101024.34;;;8.71;100.00
4085;BME280;2057;50.858;6.572;2023-04-30T06:39:52;101027.19;;;8.75;100.00
4085;BME280;2057;50.858;6.572;2023-04-30T06:42:18;101027.56;;;8.82;100.00
4085;BME280;2057;50.858;6.572;2023-04-30T06:44:43;101027.88;;;8.86;100.00
4085;BME280;2057;50.858;6.572;2023-04-30T06:47:09;101033.72;;;8.85;100.00
4085;BME280;2057;50.858;6.572;2023-04-30T06:49:35;101032.75;;;8.97;100.00
4085;BME280;2057;50.858;6.572;2023-04-30T06:52:00;101032.06;;;8.99;100.00
4085;BME280;2057;50.858;6.572;2023-04-30T06:54:25;101028.06;;;9.03;100.00
4085;BME280;2057;50.858;6.572;2023-04-30T06:56:54;101027.81;;;9.12;100.00
4085;BME280;2057;50.858;6.572;2023-04-30T06:59:20;101032.69;;;9.22;100.00
4085;BME280;2057;50.858;6.572;2023-04-30T07:01:45;101038.91;;;9.27;100.00
4085;BME280;2057;50.858;6.572;2023-04-30T07:04:10;101030.72;;;9.31;100.00
4085;BME280;2057;50.858;6.572;2023-04-30T07:06:36;101026.81;;;9.36;100.00
4085;BME280;2057;50.858;6.572;2023-04-30T07:09:02;101033.72;;;9.39;100.00
4085;BME280;2057;50.858;6.572;2023-04-30T07:11:27;101030.31;;;9.38;100.00
4085;BME280;2057;50.858;6.572;2023-04-30T07:13:53;101036.06;;;9.49;100.00
4085;BME280;2057;50.858;6.572;2023-04-30T07:16:24;101038.19;;;9.56;100.00
4085;BME280;2057;50.858;6.572;2023-04-30T07:18:51;101037.13;;;9.53;100.00
4085;BME280;2057;50.858;6.572;2023-04-30T07:21:17;101033.41;;;9.61;100.00
4085;BME280;2057;50.858;6.572;2023-04-30T07:23:42;101040.19;;;9.76;100.00
4085;BME280;2057;50.858;6.572;2023-04-30T07:26:12;101034.44;;;9.78;100.00
4085;BME280;2057;50.858;6.572;2023-04-30T07:28:38;101040.94;;;9.88;100.00
4085;BME280;2057;50.858;6.572;2023-04-30T07:31:03;101030.16;;;10.05;100.00
4085;BME280;2057;50.858;6.572;2023-04-30T07:33:28;101030.50;;;9.97;100.00
4085;BME280;2057;50.858;6.572;2023-04-30T07:35:54;101025.66;;;10.01;100.00
4085;BME280;2057;50.858;6.572;2023-04-30T07:38:22;101022.63;;;10.07;100.00
4085;BME280;2057;50.858;6.572;2023-04-30T07:40:47;101025.41;;;10.25;100.00
4085;BME280;2057;50.858;6.572;2023-04-30T07:43:13;101030.22;;;10.35;100.00
4085;BME280;2057;50.858;6.572;2023-04-30T07:45:38;101026.31;;;10.41;100.00
4085;BME280;2057;50.858;6.572;2023-04-30T07:48:04;101024.47;;;10.38;100.00
4085;BME280;2057;50.858;6.572;2023-04-30T07:50:30;101024.66;;;10.41;100.00
4085;BME280;2057;50.858;6.572;2023-04-30T07:52:58;101031.16;;;10.51;100.00
4085;BME280;2057;50.858;6.572;2023-04-30T07:55:25;101025.91;;;10.63;100.00
4085;BME280;2057;50.858;6.572;2023-04-30T07:57:51;101027.03;;;10.68;100.00
4085;BME280;2057;50.858;6.572;2023-04-30T08:00:16;101027.81;;;10.82;100.00
4085;BME280;2057;50.858;6.572;2023-04-30T08:02:42;101032.44;;;10.89;100.00
4085;BME280;2057;50.858;6.572;2023-04-30T08:05:12;101028.41;;;10.93;100.00
4085;BME280;2057;50.858;6.572;2023-04-30T08:07:37;101032.34;;;11.18;100.00
4085;BME280;2057;50.858;6.572;2023-04-30T08:10:04;101026.56;;;11.20;100.00
4085;BME280;2057;50.858;6.572;2023-04-30T08:12:29;101034.44;;;11.25;100.00
4085;BME280;2057;50.858;6.572;2023-04-30T08:15:01;101029.94;;;11.36;100.00
4085;BME280;2057;50.858;6.572;2023-04-30T08:17:28;101040.88;;;11.35;100.00
4085;BME280;2057;50.858;6.572;2023-04-30T08:19:53;101038.16;;;11.32;100.00
4085;BME280;2057;50.858;6.572;2023-04-30T08:22:21;101033.31;;;11.51;100.00
4085;BME280;2057;50.858;6.572;2023-04-30T08:24:47;101031.00;;;11.56;100.00
4085;BME280;2057;50.858;6.572;2023-04-30T08:27:12;101034.78;;;11.79;100.00
4085;BME280;2057;50.858;6.572;2023-04-30T08:29:37;101030.66;;;11.81;100.00
4085;BME280;2057;50.858;6.572;2023-04-30T08:32:03;101026.97;;;11.92;100.00
4085;BME280;2057;50.858;6.572;2023-04-30T08:34:30;101029.13;;;12.00;100.00
4085;BME280;2057;50.858;6.572;2023-04-30T08:36:55;101025.91;;;12.04;100.00
4085;BME280;2057;50.858;6.572;2023-04-30T08:39:20;101030.03;;;12.18;100.00
4085;BME280;2057;50.858;6.572;2023-04-30T08:41:51;101027.34;;;12.15;99.90
4085;BME280;2057;50.858;6.572;2023-04-30T08:44:20;101025.09;;;12.21;97.01
4085;BME280;2057;50.858;6.572;2023-04-30T08:46:54;101025.81;;;12.35;99.31
4085;BME280;2057;50.858;6.572;2023-04-30T08:49:20;101024.59;;;12.45;95.97
4085;BME280;2057;50.858;6.572;2023-04-30T08:51:48;101019.50;;;12.45;96.03
4085;BME280;2057;50.858;6.572;2023-04-30T08:54:14;101015.13;;;12.43;94.62
4085;BME280;2057;50.858;6.572;2023-04-30T08:56:40;101020.56;;;12.67;95.17
4085;BME280;2057;50.858;6.572;2023-04-30T08:59:06;101025.69;;;12.85;97.13
4085;BME280;2057;50.858;6.572;2023-04-30T09:01:33;101019.84;;;12.87;95.19
4085;BME280;2057;50.858;6.572;2023-04-30T09:03:59;101019.72;;;13.21;96.17
4085;BME280;2057;50.858;6.572;2023-04-30T09:06:24;101018.78;;;13.18;95.15
4085;BME280;2057;50.858;6.572;2023-04-30T09:08:51;101018.56;;;12.96;92.61
4085;BME280;2057;50.858;6.572;2023-04-30T09:11:24;101021.47;;;13.03;92.77
4085;BME280;2057;50.858;6.572;2023-04-30T09:13:52;101014.72;;;13.04;92.37
4085;BME280;2057;50.858;6.572;2023-04-30T09:16:18;101013.66;;;13.37;92.90
4085;BME280;2057;50.858;6.572;2023-04-30T09:18:44;101016.34;;;13.58;93.30
4085;BME280;2057;50.858;6.572;2023-04-30T09:21:10;101006.31;;;13.80;91.13
4085;BME280;2057;50.858;6.572;2023-04-30T09:23:35;101000.91;;;13.74;89.61
4085;BME280;2057;50.858;6.572;2023-04-30T09:26:01;101006.00;;;13.74;90.50
4085;BME280;2057;50.858;6.572;2023-04-30T09:28:26;100997.63;;;13.77;89.30
4085;BME280;2057;50.858;6.572;2023-04-30T09:30:55;100996.84;;;13.78;88.33
4085;BME280;2057;50.858;6.572;2023-04-30T09:33:21;100987.44;;;13.77;86.87
4085;BME280;2057;50.858;6.572;2023-04-30T09:35:47;100990.31;;;14.04;87.14
4085;BME280;2057;50.858;6.572;2023-04-30T09:38:31;100988.88;;;14.11;87.18
4085;BME280;2057;50.858;6.572;2023-04-30T09:40:58;101000.34;;;14.21;87.74
4085;BME280;2057;50.858;6.572;2023-04-30T09:43:24;100985.59;;;14.14;87.81
4085;BME280;2057;50.858;6.572;2023-04-30T09:45:50;100992.13;;;14.28;87.13
4085;BME280;2057;50.858;6.572;2023-04-30T09:48:23;100986.19;;;14.27;85.34
4085;BME280;2057;50.858;6.572;2023-04-30T09:50:50;100983.47;;;14.24;84.84
4085;BME280;2057;50.858;6.572;2023-04-30T09:53:16;100986.94;;;13.86;80.69
4085;BME280;2057;50.858;6.572;2023-04-30T09:55:50;100976.38;;;13.98;80.87
4085;BME280;2057;50.858;6.572;2023-04-30T09:58:18;100975.94;;;14.06;81.27
4085;BME280;2057;50.858;6.572;2023-04-30T10:00:49;100969.72;;;14.42;84.67
4085;BME280;2057;50.858;6.572;2023-04-30T10:03:15;100966.03;;;14.35;83.25
4085;BME280;2057;50.858;6.572;2023-04-30T10:05:43;100968.59;;;14.35;83.09
4085;BME280;2057;50.858;6.572;2023-04-30T10:10:44;100976.66;;;14.87;80.43
4085;BME280;2057;50.858;6.572;2023-04-30T10:13:17;100965.25;;;15.00;80.16
4085;BME280;2057;50.858;6.572;2023-04-30T10:15:47;100974.81;;;15.05;79.16
4085;BME280;2057;50.858;6.572;2023-04-30T10:18:18;100967.25;;;15.31;79.38
4085;BME280;2057;50.858;6.572;2023-04-30T10:20:46;100965.28;;;15.47;74.65
4085;BME280;2057;50.858;6.572;2023-04-30T10:23:13;100959.63;;;15.56;72.97
4085;BME280;2057;50.858;6.572;2023-04-30T10:25:38;100961.78;;;15.22;67.60
4085;BME280;2057;50.858;6.572;2023-04-30T10:28:08;100953.09;;;14.94;67.21
4085;BME280;2057;50.858;6.572;2023-04-30T10:30:34;100953.31;;;15.23;70.47
4085;BME280;2057;50.858;6.572;2023-04-30T10:33:25;100955.28;;;15.30;69.41
4085;BME280;2057;50.858;6.572;2023-04-30T10:35:58;100946.44;;;15.22;67.10
4085;BME280;2057;50.858;6.572;2023-04-30T10:38:29;100958.53;;;15.26;66.28
4085;BME280;2057;50.858;6.572;2023-04-30T10:40:57;100948.50;;;15.31;68.71
4085;BME280;2057;50.858;6.572;2023-04-30T10:43:23;100944.56;;;15.63;71.54
4085;BME280;2057;50.858;6.572;2023-04-30T10:45:49;100935.91;;;16.10;71.31
4085;BME280;2057;50.858;6.572;2023-04-30T10:48:15;100937.09;;;15.94;70.68
4085;BME280;2057;50.858;6.572;2023-04-30T10:50:49;100932.81;;;15.70;69.58
4085;BME280;2057;50.858;6.572;2023-04-30T10:53:19;100930.56;;;15.79;68.37
4085;BME280;2057;50.858;6.572;2023-04-30T10:55:58;100935.56;;;15.99;67.83
4085;BME280;2057;50.858;6.572;2023-04-30T10:58:32;100924.72;;;15.82;65.49
4085;BME280;2057;50.858;6.572;2023-04-30T11:01:12;100921.34;;;15.59;66.06
4085;BME280;2057;50.858;6.572;2023-04-30T11:04:08;100924.06;;;15.63;65.44
4085;BME280;2057;50.858;6.572;2023-04-30T11:09:40;100907.06;;;15.65;64.99
4085;BME280;2057;50.858;6.572;2023-04-30T11:12:10;100909.53;;;15.62;62.80
4085;BME280;2057;50.858;6.572;2023-04-30T11:14:39;100908.97;;;15.95;64.99
4085;BME280;2057;50.858;6.572;2023-04-30T11:17:06;100903.88;;;15.97;60.82
4085;BME280;2057;50.858;6.572;2023-04-30T11:19:31;100906.78;;;15.82;60.94
4085;BME280;2057;50.858;6.572;2023-04-30T11:24:50;100898.13;;;16.30;59.59
4085;BME280;2057;50.858;6.572;2023-04-30T11:27:22;100897.31;;;16.31;61.74
4085;BME280;2057;50.858;6.572;2023-04-30T11:29:49;100899.94;;;16.33;62.19
4085;BME280;2057;50.858;6.572;2023-04-30T11:32:20;100893.88;;;16.30;63.38
4085;BME280;2057;50.858;6.572;2023-04-30T11:34:45;100885.66;;;16.68;62.33
4085;BME280;2057;50.858;6.572;2023-04-30T11:37:14;100885.47;;;16.91;62.31
4085;BME280;2057;50.858;6.572;2023-04-30T11:39:41;100881.06;;;16.58;59.56
4085;BME280;2057;50.858;6.572;2023-04-30T11:42:09;100882.84;;;16.60;60.59
4085;BME280;2057;50.858;6.572;2023-04-30T11:44:34;100878.84;;;16.14;58.06
4085;BME280;2057;50.858;6.572;2023-04-30T11:47:00;100875.34;;;16.39;59.07
4085;BME280;2057;50.858;6.572;2023-04-30T11:49:26;100871.97;;;16.68;56.66
4085;BME280;2057;50.858;6.572;2023-04-30T11:51:52;100863.63;;;16.75;59.62
4085;BME280;2057;50.858;6.572;2023-04-30T11:54:17;100859.38;;;17.35;60.64
4085;BME280;2057;50.858;6.572;2023-04-30T11:56:49;100855.94;;;17.68;59.28
4085;BME280;2057;50.858;6.572;2023-04-30T11:59:15;100852.78;;;17.78;59.89
4085;BME280;2057;50.858;6.572;2023-04-30T12:01:41;100863.28;;;17.86;57.97
4085;BME280;2057;50.858;6.572;2023-04-30T12:04:07;100851.78;;;17.39;58.07
4085;BME280;2057;50.858;6.572;2023-04-30T12:06:34;100850.44;;;17.20;58.51
4085;BME280;2057;50.858;6.572;2023-04-30T12:09:01;100840.91;;;17.16;58.75
4085;BME280;2057;50.858;6.572;2023-04-30T12:11:33;100838.84;;;17.35;58.15
4085;BME280;2057;50.858;6.572;2023-04-30T12:14:06;100846.44;;;17.00;56.37
4085;BME280;2057;50.858;6.572;2023-04-30T12:16:47;100839.28;;;16.91;56.01
4085;BME280;2057;50.858;6.572;2023-04-30T12:19:16;100831.63;;;17.21;54.72
4085;BME280;2057;50.858;6.572;2023-04-30T12:21:43;100835.56;;;17.74;55.61
4085;BME280;2057;50.858;6.572;2023-04-30T12:24:12;100837.53;;;18.19;55.85
4085;BME280;2057;50.858;6.572;2023-04-30T12:26:38;100832.94;;;18.43;57.22
4085;BME280;2057;50.858;6.572;2023-04-30T12:29:08;100838.94;;;18.43;57.63
4085;BME280;2057;50.858;6.572;2023-04-30T12:31:38;100838.16;;;18.46;56.82
4085;BME280;2057;50.858;6.572;2023-04-30T12:34:08;100827.00;;;18.47;55.05
4085;BME280;2057;50.858;6.572;2023-04-30T12:36:34;100825.41;;;18.50;55.21
4085;BME280;2057;50.858;6.572;2023-04-30T12:39:13;100830.81;;;18.25;56.33
4085;BME280;2057;50.858;6.572;2023-04-30T12:41:45;100828.06;;;18.55;56.45
4085;BME280;2057;50.858;6.572;2023-04-30T12:44:21;100826.13;;;18.85;56.67
4085;BME280;2057;50.858;6.572;2023-04-30T12:46:50;100815.97;;;18.51;53.59
4085;BME280;2057;50.858;6.572;2023-04-30T12:51:57;100813.66;;;18.24;55.84
4085;BME280;2057;50.858;6.572;2023-04-30T12:54:24;100806.31;;;18.41;56.84
4085;BME280;2057;50.858;6.572;2023-04-30T12:57:02;100805.91;;;18.62;57.64
4085;BME280;2057;50.858;6.572;2023-04-30T12:59:35;100807.44;;;18.54;57.24
4085;BME280;2057;50.858;6.572;2023-04-30T13:02:09;100801.31;;;18.88;57.91
4085;BME280;2057;50.858;6.572;2023-04-30T13:04:35;100804.56;;;19.24;55.23
4085;BME280;2057;50.858;6.572;2023-04-30T13:07:02;100797.78;;;19.27;52.79
4085;BME280;2057;50.858;6.572;2023-04-30T13:09:28;100790.63;;;19.12;52.42
4085;BME280;2057;50.858;6.572;2023-04-30T13:11:56;100787.97;;;19.57;54.80
4085;BME280;2057;50.858;6.572;2023-04-30T13:14:22;100791.47;;;19.59;51.94
4085;BME280;2057;50.858;6.572;2023-04-30T13:16:47;100783.78;;;18.70;54.37
4085;BME280;2057;50.858;6.572;2023-04-30T13:22:34;100777.56;;;19.00;55.79
4085;BME280;2057;50.858;6.572;2023-04-30T13:24:59;100776.03;;;18.69;54.95
4085;BME280;2057;50.858;6.572;2023-04-30T13:27:25;100778.50;;;18.64;55.41
4085;BME280;2057;50.858;6.572;2023-04-30T13:29:53;100775.97;;;19.08;52.83
4085;BME280;2057;50.858;6.572;2023-04-30T13:32:18;100773.84;;;19.33;51.15
4085;BME280;2057;50.858;6.572;2023-04-30T13:34:43;100766.22;;;19.39;51.84
4085;BME280;2057;50.858;6.572;2023-04-30T13:37:09;100770.25;;;19.75;50.72
4085;BME280;2057;50.858;6.572;2023-04-30T13:39:34;100747.25;;;20.48;51.05
4085;BME280;2057;50.858;6.572;2023-04-30T13:42:00;100752.34;;;20.46;48.87
4085;BME280;2057;50.858;6.572;2023-04-30T13:44:25;100745.44;;;20.41;49.66